sensor_id;sensor_type;location;lat;lon;timestamp;pressure;altitude;pressure_sealevel;temperature
15360;BMP280;7779;49.596;11.070;2022-08-06T00:02:06;98726.84;;;22.60
15360;BMP280;7779;49.596;11.070;2022-08-06T00:04:32;98729.41;;;22.58
15360;BMP280;7779;49.596;11.070;2022-08-06T00:06:58;98744.66;;;22.55
15360;BMP280;7779;49.596;11.070;2022-08-06T00:09:24;98742.06;;;22.52
15360;BMP280;7779;49.596;11.070;2022-08-06T00:11:52;98746.28;;;22.50
15360;BMP280;7779;49.596;11.070;2022-08-06T00:14:18;98748.81;;;22.49
15360;BMP280;7779;49.596;11.070;2022-08-06T00:16:44;98753.06;;;22.48
15360;BMP280;7779;49.596;11.070;2022-08-06T00:19:10;98756.47;;;22.47
15360;BMP280;7779;49.596;11.070;2022-08-06T00:21:36;98768.34;;;22.47
15360;BMP280;7779;49.596;11.070;2022-08-06T00:24:01;98771.72;;;22.44
15360;BMP280;7779;49.596;11.070;2022-08-06T00:26:27;98770.81;;;22.41
15360;BMP280;7779;49.596;11.070;2022-08-06T00:28:54;98775.00;;;22.37
15360;BMP280;7779;49.596;11.070;2022-08-06T00:31:20;98780.94;;;22.35
15360;BMP280;7779;49.596;11.070;2022-08-06T00:33:46;98775.75;;;22.32
15360;BMP280;7779;49.596;11.070;2022-08-06T00:36:12;98774.81;;;22.27
15360;BMP280;7779;49.596;11.070;2022-08-06T00:38:38;98776.41;;;22.21
15360;BMP280;7779;49.596;11.070;2022-08-06T00:41:04;98781.41;;;22.15
15360;BMP280;7779;49.596;11.070;2022-08-06T00:43:30;98776.97;;;22.06
15360;BMP280;7779;49.596;11.070;2022-08-06T00:45:56;98778.56;;;22.01
15360;BMP280;7779;49.596;11.070;2022-08-06T00:48:22;98773.25;;;21.91
15360;BMP280;7779;49.596;11.070;2022-08-06T00:50:48;98770.63;;;21.85
15360;BMP280;7779;49.596;11.070;2022-08-06T00:53:14;98767.06;;;21.77
15360;BMP280;7779;49.596;11.070;2022-08-06T00:55:39;98776.31;;;21.72
15360;BMP280;7779;49.596;11.070;2022-08-06T00:58:06;98782.13;;;21.65
15360;BMP280;7779;49.596;11.070;2022-08-06T01:00:35;98786.25;;;21.60
15360;BMP280;7779;49.596;11.070;2022-08-06T01:03:01;98794.69;;;21.56
15360;BMP280;7779;49.596;11.070;2022-08-06T01:05:27;98780.97;;;21.52
15360;BMP280;7779;49.596;11.070;2022-08-06T01:07:53;98776.66;;;21.48
15360;BMP280;7779;49.596;11.070;2022-08-06T01:10:20;98782.44;;;21.41
15360;BMP280;7779;49.596;11.070;2022-08-06T01:12:47;98777.22;;;21.36
15360;BMP280;7779;49.596;11.070;2022-08-06T01:15:13;98785.63;;;21.31
15360;BMP280;7779;49.596;11.070;2022-08-06T01:27:12;98790.38;;;21.16
15360;BMP280;7779;49.596;11.070;2022-08-06T01:29:46;98787.75;;;21.13
15360;BMP280;7779;49.596;11.070;2022-08-06T01:32:48;98791.13;;;21.12
15360;BMP280;7779;49.596;11.070;2022-08-06T01:35:28;98797.88;;;21.10
15360;BMP280;7779;49.596;11.070;2022-08-06T01:38:05;98808.91;;;21.09
15360;BMP280;7779;49.596;11.070;2022-08-06T01:40:35;98802.03;;;21.07
15360;BMP280;7779;49.596;11.070;2022-08-06T01:43:06;98814.78;;;21.05
15360;BMP280;7779;49.596;11.070;2022-08-06T01:45:35;98803.69;;;21.03
15360;BMP280;7779;49.596;11.070;2022-08-06T01:48:06;98811.31;;;21.03
15360;BMP280;7779;49.596;11.070;2022-08-06T01:50:40;98816.44;;;21.03
15360;BMP280;7779;49.596;11.070;2022-08-06T01:53:13;98811.31;;;21.03
15360;BMP280;7779;49.596;11.070;2022-08-06T01:55:44;98818.06;;;21.01
15360;BMP280;7779;49.596;11.070;2022-08-06T01:58:15;98808.63;;;20.97
15360;BMP280;7779;49.596;11.070;2022-08-06T02:00:46;98821.25;;;20.93
15360;BMP280;7779;49.596;11.070;2022-08-06T02:03:26;98816.84;;;20.86
15360;BMP280;7779;49.596;11.070;2022-08-06T02:05:56;98820.13;;;20.80
15360;BMP280;7779;49.596;11.070;2022-08-06T02:08:27;98822.56;;;20.77
15360;BMP280;7779;49.596;11.070;2022-08-06T02:10:56;98820.00;;;20.76
15360;BMP280;7779;49.596;11.070;2022-08-06T02:13:24;98819.13;;;20.76
15360;BMP280;7779;49.596;11.070;2022-08-06T02:15:53;98825.09;;;20.76
15360;BMP280;7779;49.596;11.070;2022-08-06T02:18:22;98824.22;;;20.76
15360;BMP280;7779;49.596;11.070;2022-08-06T02:20:52;98814.84;;;20.73
15360;BMP280;7779;49.596;11.070;2022-08-06T02:23:24;98809.75;;;20.73
15360;BMP280;7779;49.596;11.070;2022-08-06T02:25:54;98819.97;;;20.75
15360;BMP280;7779;49.596;11.070;2022-08-06T02:28:24;98823.28;;;20.72
15360;BMP280;7779;49.596;11.070;2022-08-06T02:30:56;98818.16;;;20.71
15360;BMP280;7779;49.596;11.070;2022-08-06T02:33:22;98822.34;;;20.69
15360;BMP280;7779;49.596;11.070;2022-08-06T02:41:41;98833.28;;;20.65
15360;BMP280;7779;49.596;11.070;2022-08-06T02:44:19;98845.91;;;20.62
15360;BMP280;7779;49.596;11.070;2022-08-06T02:47:23;98845.84;;;20.59
15360;BMP280;7779;49.596;11.070;2022-08-06T02:49:54;98833.78;;;20.52
15360;BMP280;7779;49.596;11.070;2022-08-06T02:52:36;98849.91;;;20.52
15360;BMP280;7779;49.596;11.070;2022-08-06T02:55:14;98846.38;;;20.47
15360;BMP280;7779;49.596;11.070;2022-08-06T02:57:53;98844.59;;;20.43
15360;BMP280;7779;49.596;11.070;2022-08-06T03:00:22;98844.44;;;20.37
15360;BMP280;7779;49.596;11.070;2022-08-06T03:02:54;98853.69;;;20.34
15360;BMP280;7779;49.596;11.070;2022-08-06T03:05:22;98856.97;;;20.30
15360;BMP280;7779;49.596;11.070;2022-08-06T03:07:51;98857.72;;;20.26
15360;BMP280;7779;49.596;11.070;2022-08-06T03:10:20;98852.50;;;20.22
15360;BMP280;7779;49.596;11.070;2022-08-06T03:12:48;98854.84;;;20.14
15360;BMP280;7779;49.596;11.070;2022-08-06T03:15:17;98865.81;;;20.12
15360;BMP280;7779;49.596;11.070;2022-08-06T03:17:45;98872.44;;;20.07
15360;BMP280;7779;49.596;11.070;2022-08-06T03:20:16;98858.81;;;20.05
15360;BMP280;7779;49.596;11.070;2022-08-06T03:22:48;98862.06;;;19.99
15360;BMP280;7779;49.596;11.070;2022-08-06T03:25:16;98869.66;;;19.98
15360;BMP280;7779;49.596;11.070;2022-08-06T03:27:44;98874.63;;;19.95
15360;BMP280;7779;49.596;11.070;2022-08-06T03:30:16;98877.97;;;19.93
15360;BMP280;7779;49.596;11.070;2022-08-06T03:32:43;98878.75;;;19.90
15360;BMP280;7779;49.596;11.070;2022-08-06T03:35:10;98882.06;;;19.88
15360;BMP280;7779;49.596;11.070;2022-08-06T03:37:36;98882.00;;;19.85
15360;BMP280;7779;49.596;11.070;2022-08-06T03:40:05;98883.66;;;19.84
15360;BMP280;7779;49.596;11.070;2022-08-06T03:42:31;98891.16;;;19.81
15360;BMP280;7779;49.596;11.070;2022-08-06T03:44:58;98901.44;;;19.83
15360;BMP280;7779;49.596;11.070;2022-08-06T03:47:29;98897.91;;;19.81
15360;BMP280;7779;49.596;11.070;2022-08-06T03:50:19;98901.28;;;19.80
15360;BMP280;7779;49.596;11.070;2022-08-06T03:52:54;98910.41;;;19.73
15360;BMP280;7779;49.596;11.070;2022-08-06T03:55:25;98911.09;;;19.68
15360;BMP280;7779;49.596;11.070;2022-08-06T03:58:00;98915.16;;;19.61
15360;BMP280;7779;49.596;11.070;2022-08-06T04:00:33;98909.84;;;19.54
15360;BMP280;7779;49.596;11.070;2022-08-06T04:03:01;98907.16;;;19.50
15360;BMP280;7779;49.596;11.070;2022-08-06T04:05:32;98918.91;;;19.46
15360;BMP280;7779;49.596;11.070;2022-08-06T04:08:05;98909.47;;;19.42
15360;BMP280;7779;49.596;11.070;2022-08-06T04:10:44;98922.06;;;19.39
15360;BMP280;7779;49.596;11.070;2022-08-06T04:13:13;98923.69;;;19.37
15360;BMP280;7779;49.596;11.070;2022-08-06T04:15:41;98925.25;;;19.32
15360;BMP280;7779;49.596;11.070;2022-08-06T04:18:11;98929.38;;;19.29
15360;BMP280;7779;49.596;11.070;2022-08-06T04:20:43;98928.41;;;19.25
15360;BMP280;7779;49.596;11.070;2022-08-06T04:23:10;98937.63;;;19.22
15360;BMP280;7779;49.596;11.070;2022-08-06T04:25:46;98940.09;;;19.20
15360;BMP280;7779;49.596;11.070;2022-08-06T04:28:15;98943.41;;;19.18
15360;BMP280;7779;49.596;11.070;2022-08-06T04:30:44;98947.63;;;19.17
15360;BMP280;7779;49.596;11.070;2022-08-06T04:33:13;98951.00;;;19.17
15360;BMP280;7779;49.596;11.070;2022-08-06T04:35:41;98956.06;;;19.17
15360;BMP280;7779;49.596;11.070;2022-08-06T04:38:09;98964.50;;;19.16
15360;BMP280;7779;49.596;11.070;2022-08-06T04:40:39;98966.22;;;19.17
15360;BMP280;7779;49.596;11.070;2022-08-06T04:43:10;98966.22;;;19.17
15360;BMP280;7779;49.596;11.070;2022-08-06T04:45:40;98973.84;;;19.17
15360;BMP280;7779;49.596;11.070;2022-08-06T04:48:09;98974.69;;;19.17
15360;BMP280;7779;49.596;11.070;2022-08-06T04:50:36;98982.38;;;19.18
15360;BMP280;7779;49.596;11.070;2022-08-06T04:55:32;98984.19;;;19.22
15360;BMP280;7779;49.596;11.070;2022-08-06T04:57:59;98988.47;;;19.23
15360;BMP280;7779;49.596;11.070;2022-08-06T05:00:25;98987.66;;;19.24
15360;BMP280;7779;49.596;11.070;2022-08-06T05:02:51;98997.91;;;19.27
15360;BMP280;7779;49.596;11.070;2022-08-06T05:05:20;99003.09;;;19.30
15360;BMP280;7779;49.596;11.070;2022-08-06T05:07:50;99004.03;;;19.34
15360;BMP280;7779;49.596;11.070;2022-08-06T05:10:18;99000.84;;;19.39
15360;BMP280;7779;49.596;11.070;2022-08-06T05:12:53;99006.13;;;19.45
15360;BMP280;7779;49.596;11.070;2022-08-06T05:15:28;99000.44;;;19.52
15360;BMP280;7779;49.596;11.070;2022-08-06T05:18:08;99008.31;;;19.59
15360;BMP280;7779;49.596;11.070;2022-08-06T05:20:40;99008.53;;;19.67
15360;BMP280;7779;49.596;11.070;2022-08-06T05:23:24;99006.28;;;19.76
15360;BMP280;7779;49.596;11.070;2022-08-06T05:25:52;99016.84;;;19.88
15360;BMP280;7779;49.596;11.070;2022-08-06T05:28:18;99014.63;;;19.98
15360;BMP280;7779;49.596;11.070;2022-08-06T05:30:50;99019.25;;;20.11
15360;BMP280;7779;49.596;11.070;2022-08-06T05:33:31;99020.47;;;20.23
15360;BMP280;7779;49.596;11.070;2022-08-06T05:35:59;99023.34;;;20.34
15360;BMP280;7779;49.596;11.070;2022-08-06T05:38:27;99026.25;;;20.47
15360;BMP280;7779;49.596;11.070;2022-08-06T05:40:54;99020.63;;;20.57
15360;BMP280;7779;49.596;11.070;2022-08-06T05:43:22;99020.06;;;20.67
15360;BMP280;7779;49.596;11.070;2022-08-06T05:45:51;99022.91;;;20.77
15360;BMP280;7779;49.596;11.070;2022-08-06T05:48:20;99022.25;;;20.84
15360;BMP280;7779;49.596;11.070;2022-08-06T05:50:55;99025.09;;;20.94
15360;BMP280;7779;49.596;11.070;2022-08-06T05:53:37;99025.41;;;21.06
15360;BMP280;7779;49.596;11.070;2022-08-06T05:56:14;99035.13;;;21.20
15360;BMP280;7779;49.596;11.070;2022-08-06T05:58:47;99030.31;;;21.31
15360;BMP280;7779;49.596;11.070;2022-08-06T06:01:17;99029.78;;;21.42
15360;BMP280;7779;49.596;11.070;2022-08-06T06:03:45;99023.97;;;21.48
15360;BMP280;7779;49.596;11.070;2022-08-06T06:06:12;99027.53;;;21.54
15360;BMP280;7779;49.596;11.070;2022-08-06T06:08:39;99030.22;;;21.60
15360;BMP280;7779;49.596;11.070;2022-08-06T06:11:07;99034.56;;;21.64
15360;BMP280;7779;49.596;11.070;2022-08-06T06:13:34;99038.22;;;21.75
15360;BMP280;7779;49.596;11.070;2022-08-06T06:16:21;99042.78;;;21.86
15360;BMP280;7779;49.596;11.070;2022-08-06T06:19:20;99041.91;;;21.87
15360;BMP280;7779;49.596;11.070;2022-08-06T06:22:20;99042.59;;;21.80
15360;BMP280;7779;49.596;11.070;2022-08-06T06:25:21;99043.19;;;21.69
15360;BMP280;7779;49.596;11.070;2022-08-06T06:31:35;99041.19;;;21.56
15360;BMP280;7779;49.596;11.070;2022-08-06T06:34:20;99046.47;;;21.63
15360;BMP280;7779;49.596;11.070;2022-08-06T06:36:59;99046.63;;;21.71
15360;BMP280;7779;49.596;11.070;2022-08-06T06:40:00;99049.34;;;21.78
15360;BMP280;7779;49.596;11.070;2022-08-06T06:42:38;99054.63;;;21.84
15360;BMP280;7779;49.596;11.070;2022-08-06T06:45:18;99061.53;;;21.88
15360;BMP280;7779;49.596;11.070;2022-08-06T06:48:12;99055.75;;;21.95
15360;BMP280;7779;49.596;11.070;2022-08-06T06:50:50;99065.31;;;22.05
15360;BMP280;7779;49.596;11.070;2022-08-06T06:53:18;99068.75;;;22.07
15360;BMP280;7779;49.596;11.070;2022-08-06T06:55:49;99067.06;;;22.07
15360;BMP280;7779;49.596;11.070;2022-08-06T06:58:35;99062.16;;;22.15
15360;BMP280;7779;49.596;11.070;2022-08-06T07:01:07;99064.94;;;22.25
15360;BMP280;7779;49.596;11.070;2022-08-06T07:03:38;99068.63;;;22.37
15360;BMP280;7779;49.596;11.070;2022-08-06T07:06:07;99071.38;;;22.46
15360;BMP280;7779;49.596;11.070;2022-08-06T07:08:45;99068.13;;;22.53
15360;BMP280;7779;49.596;11.070;2022-08-06T07:11:20;99076.75;;;22.58
15360;BMP280;7779;49.596;11.070;2022-08-06T07:13:48;99078.50;;;22.61
15360;BMP280;7779;49.596;11.070;2022-08-06T07:16:18;99067.47;;;22.62
15360;BMP280;7779;49.596;11.070;2022-08-06T07:18:47;99081.13;;;22.64
15360;BMP280;7779;49.596;11.070;2022-08-06T07:21:17;99076.78;;;22.61
15360;BMP280;7779;49.596;11.070;2022-08-06T07:23:49;99081.88;;;22.60
15360;BMP280;7779;49.596;11.070;2022-08-06T07:26:22;99077.50;;;22.53
15360;BMP280;7779;49.596;11.070;2022-08-06T07:28:51;99083.34;;;22.47
15360;BMP280;7779;49.596;11.070;2022-08-06T07:31:22;99072.19;;;22.44
15360;BMP280;7779;49.596;11.070;2022-08-06T07:33:50;99083.25;;;22.44
15360;BMP280;7779;49.596;11.070;2022-08-06T07:36:18;99083.28;;;22.46
15360;BMP280;7779;49.596;11.070;2022-08-06T07:38:47;99084.25;;;22.51
15360;BMP280;7779;49.596;11.070;2022-08-06T07:41:15;99076.63;;;22.54
15360;BMP280;7779;49.596;11.070;2022-08-06T07:43:58;99077.66;;;22.60
15360;BMP280;7779;49.596;11.070;2022-08-06T07:46:32;99088.06;;;22.69
15360;BMP280;7779;49.596;11.070;2022-08-06T07:49:04;99081.38;;;22.77
15360;BMP280;7779;49.596;11.070;2022-08-06T07:51:35;99082.47;;;22.88
15360;BMP280;7779;49.596;11.070;2022-08-06T07:54:06;99085.34;;;23.03
15360;BMP280;7779;49.596;11.070;2022-08-06T07:56:36;99083.09;;;23.17
15360;BMP280;7779;49.596;11.070;2022-08-06T07:59:04;99072.22;;;23.29
15360;BMP280;7779;49.596;11.070;2022-08-06T08:01:32;99083.47;;;23.38
15360;BMP280;7779;49.596;11.070;2022-08-06T08:04:00;99076.69;;;23.40
15360;BMP280;7779;49.596;11.070;2022-08-06T08:06:44;99087.88;;;23.47
15360;BMP280;7779;49.596;11.070;2022-08-06T08:09:16;99078.56;;;23.50
15360;BMP280;7779;49.596;11.070;2022-08-06T08:11:45;99085.34;;;23.50
15360;BMP280;7779;49.596;11.070;2022-08-06T08:14:15;99081.06;;;23.47
15360;BMP280;7779;49.596;11.070;2022-08-06T08:16:42;99088.66;;;23.44
15360;BMP280;7779;49.596;11.070;2022-08-06T08:19:24;99092.91;;;23.42
15360;BMP280;7779;49.596;11.070;2022-08-06T08:21:54;99091.19;;;23.41
15360;BMP280;7779;49.596;11.070;2022-08-06T08:24:23;99088.66;;;23.43
15360;BMP280;7779;49.596;11.070;2022-08-06T08:26:49;99090.41;;;23.45
15360;BMP280;7779;49.596;11.070;2022-08-06T08:29:15;99082.84;;;23.51
15360;BMP280;7779;49.596;11.070;2022-08-06T08:31:41;99082.91;;;23.54
15360;BMP280;7779;49.596;11.070;2022-08-06T08:34:07;99085.53;;;23.57
15360;BMP280;7779;49.596;11.070;2022-08-06T08:36:33;99085.53;;;23.57
15360;BMP280;7779;49.596;11.070;2022-08-06T08:38:59;99092.44;;;23.61
15360;BMP280;7779;49.596;11.070;2022-08-06T08:41:42;99091.63;;;23.63
15360;BMP280;7779;49.596;11.070;2022-08-06T08:44:08;99090.03;;;23.70
15360;BMP280;7779;49.596;11.070;2022-08-06T08:46:39;99085.88;;;23.78
15360;BMP280;7779;49.596;11.070;2022-08-06T08:49:16;99097.94;;;23.85
15360;BMP280;7779;49.596;11.070;2022-08-06T08:51:46;99091.09;;;23.84
15360;BMP280;7779;49.596;11.070;2022-08-06T08:54:16;99084.28;;;23.83
15360;BMP280;7779;49.596;11.070;2022-08-06T08:56:48;99089.41;;;23.86
15360;BMP280;7779;49.596;11.070;2022-08-06T08:59:15;99086.94;;;23.90
15360;BMP280;7779;49.596;11.070;2022-08-06T09:01:42;99081.94;;;23.97
15360;BMP280;7779;49.596;11.070;2022-08-06T09:04:09;99070.91;;;24.01
15360;BMP280;7779;49.596;11.070;2022-08-06T09:06:37;99074.41;;;24.06
15360;BMP280;7779;49.596;11.070;2022-08-06T09:09:05;99076.19;;;24.12
15360;BMP280;7779;49.596;11.070;2022-08-06T09:11:36;99079.63;;;24.14
15360;BMP280;7779;49.596;11.070;2022-08-06T09:14:07;99076.25;;;24.15
15360;BMP280;7779;49.596;11.070;2022-08-06T09:16:36;99073.69;;;24.15
15360;BMP280;7779;49.596;11.070;2022-08-06T09:19:04;99072.88;;;24.19
15360;BMP280;7779;49.596;11.070;2022-08-06T09:21:32;99079.78;;;24.24
15360;BMP280;7779;49.596;11.070;2022-08-06T09:23:59;99075.63;;;24.28
15360;BMP280;7779;49.596;11.070;2022-08-06T09:26:26;99080.75;;;24.31
15360;BMP280;7779;49.596;11.070;2022-08-06T09:28:52;99085.91;;;24.32
15360;BMP280;7779;49.596;11.070;2022-08-06T09:31:21;99085.91;;;24.32
15360;BMP280;7779;49.596;11.070;2022-08-06T09:36:24;99073.94;;;24.30
15360;BMP280;7779;49.596;11.070;2022-08-06T09:38:59;99075.72;;;24.35
15360;BMP280;7779;49.596;11.070;2022-08-06T09:41:29;99068.09;;;24.38
15360;BMP280;7779;49.596;11.070;2022-08-06T09:43:57;99072.38;;;24.40
15360;BMP280;7779;49.596;11.070;2022-08-06T09:46:46;99066.41;;;24.40
15360;BMP280;7779;49.596;11.070;2022-08-06T09:49:14;99062.97;;;24.41
15360;BMP280;7779;49.596;11.070;2022-08-06T09:51:42;99062.19;;;24.46
15360;BMP280;7779;49.596;11.070;2022-08-06T09:54:13;99058.84;;;24.49
15360;BMP280;7779;49.596;11.070;2022-08-06T09:56:43;99062.31;;;24.52
15360;BMP280;7779;49.596;11.070;2022-08-06T09:59:11;99058.94;;;24.59
15360;BMP280;7779;49.596;11.070;2022-08-06T10:01:43;99068.47;;;24.68
15360;BMP280;7779;49.596;11.070;2022-08-06T10:04:27;99055.69;;;24.72
15360;BMP280;7779;49.596;11.070;2022-08-06T10:06:59;99063.41;;;24.73
15360;BMP280;7779;49.596;11.070;2022-08-06T10:09:27;99058.31;;;24.76
15360;BMP280;7779;49.596;11.070;2022-08-06T10:11:54;99053.25;;;24.79
15360;BMP280;7779;49.596;11.070;2022-08-06T10:14:32;99056.75;;;24.87
15360;BMP280;7779;49.596;11.070;2022-08-06T10:17:20;99067.97;;;24.95
15360;BMP280;7779;49.596;11.070;2022-08-06T10:20:07;99062.00;;;24.96
15360;BMP280;7779;49.596;11.070;2022-08-06T10:22:35;99053.44;;;24.97
15360;BMP280;7779;49.596;11.070;2022-08-06T10:25:03;99052.69;;;25.03
15360;BMP280;7779;49.596;11.070;2022-08-06T10:27:33;99053.59;;;25.09
15360;BMP280;7779;49.596;11.070;2022-08-06T10:30:08;99050.28;;;25.19
15360;BMP280;7779;49.596;11.070;2022-08-06T10:32:55;99054.63;;;25.24
15360;BMP280;7779;49.596;11.070;2022-08-06T10:35:23;99049.53;;;25.30
15360;BMP280;7779;49.596;11.070;2022-08-06T10:37:55;99054.72;;;25.33
15360;BMP280;7779;49.596;11.070;2022-08-06T10:40:26;99047.88;;;25.37
15360;BMP280;7779;49.596;11.070;2022-08-06T10:42:52;99053.91;;;25.42
15360;BMP280;7779;49.596;11.070;2022-08-06T10:45:19;99050.53;;;25.44
15360;BMP280;7779;49.596;11.070;2022-08-06T10:47:47;99045.38;;;25.46
15360;BMP280;7779;49.596;11.070;2022-08-06T10:50:14;99050.56;;;25.49
15360;BMP280;7779;49.596;11.070;2022-08-06T10:52:42;99047.13;;;25.47
15360;BMP280;7779;49.596;11.070;2022-08-06T10:55:09;99047.13;;;25.47
15360;BMP280;7779;49.596;11.070;2022-08-06T10:57:38;99042.03;;;25.51
15360;BMP280;7779;49.596;11.070;2022-08-06T11:00:07;99036.94;;;25.55
15360;BMP280;7779;49.596;11.070;2022-08-06T11:05:42;99037.00;;;25.61
15360;BMP280;7779;49.596;11.070;2022-08-06T11:08:45;99045.56;;;25.59
15360;BMP280;7779;49.596;11.070;2022-08-06T11:12:03;99032.66;;;25.56
15360;BMP280;7779;49.596;11.070;2022-08-06T11:14:37;99037.88;;;25.59
15360;BMP280;7779;49.596;11.070;2022-08-06T11:17:05;99031.88;;;25.60
15360;BMP280;7779;49.596;11.070;2022-08-06T11:19:43;99028.47;;;25.62
15360;BMP280;7779;49.596;11.070;2022-08-06T11:22:40;99025.97;;;25.70
15360;BMP280;7779;49.596;11.070;2022-08-06T11:25:09;99021.75;;;25.78
15360;BMP280;7779;49.596;11.070;2022-08-06T11:27:55;99012.38;;;25.84
15360;BMP280;7779;49.596;11.070;2022-08-06T11:30:45;99017.56;;;25.90
15360;BMP280;7779;49.596;11.070;2022-08-06T11:36:06;99022.78;;;26.00
15360;BMP280;7779;49.596;11.070;2022-08-06T11:41:19;99018.50;;;26.04
15360;BMP280;7779;49.596;11.070;2022-08-06T11:46:26;99017.66;;;26.08
15360;BMP280;7779;49.596;11.070;2022-08-06T11:52:01;99013.41;;;26.16
15360;BMP280;7779;49.596;11.070;2022-08-06T11:57:23;99002.31;;;26.18
15360;BMP280;7779;49.596;11.070;2022-08-06T12:07:39;98990.41;;;26.22
15360;BMP280;7779;49.596;11.070;2022-08-06T12:12:45;98989.56;;;26.32
15360;BMP280;7779;49.596;11.070;2022-08-06T12:17:40;98989.63;;;26.43
15360;BMP280;7779;49.596;11.070;2022-08-06T12:20:08;98988.78;;;26.47
15360;BMP280;7779;49.596;11.070;2022-08-06T12:22:35;98982.78;;;26.48
15360;BMP280;7779;49.596;11.070;2022-08-06T12:25:06;98980.22;;;26.48
15360;BMP280;7779;49.596;11.070;2022-08-06T12:27:35;98974.22;;;26.49
15360;BMP280;7779;49.596;11.070;2022-08-06T12:30:04;98980.25;;;26.54
15360;BMP280;7779;49.596;11.070;2022-08-06T12:32:34;98970.84;;;26.56
15360;BMP280;7779;49.596;11.070;2022-08-06T12:35:10;98973.41;;;26.56
15360;BMP280;7779;49.596;11.070;2022-08-06T12:37:46;98972.53;;;26.57
15360;BMP280;7779;49.596;11.070;2022-08-06T12:40:17;98971.69;;;26.57
15360;BMP280;7779;49.596;11.070;2022-08-06T12:45:30;98957.09;;;26.51
15360;BMP280;7779;49.596;11.070;2022-08-06T12:48:06;98960.53;;;26.53
15360;BMP280;7779;49.596;11.070;2022-08-06T12:50:36;98958.84;;;26.58
15360;BMP280;7779;49.596;11.070;2022-08-06T12:53:16;98956.28;;;26.64
15360;BMP280;7779;49.596;11.070;2022-08-06T12:58:19;98955.44;;;26.77
15360;BMP280;7779;49.596;11.070;2022-08-06T13:00:54;98952.06;;;26.84
15360;BMP280;7779;49.596;11.070;2022-08-06T13:03:23;98952.09;;;26.90
15360;BMP280;7779;49.596;11.070;2022-08-06T13:05:56;98940.97;;;26.95
15360;BMP280;7779;49.596;11.070;2022-08-06T13:08:25;98941.81;;;26.97
15360;BMP280;7779;49.596;11.070;2022-08-06T13:10:54;98939.25;;;27.02
15360;BMP280;7779;49.596;11.070;2022-08-06T13:13:21;98942.69;;;27.08
15360;BMP280;7779;49.596;11.070;2022-08-06T13:16:09;98943.56;;;27.12
15360;BMP280;7779;49.596;11.070;2022-08-06T13:18:41;98942.66;;;27.10
15360;BMP280;7779;49.596;11.070;2022-08-06T13:21:23;98931.53;;;27.09
15360;BMP280;7779;49.596;11.070;2022-08-06T13:23:51;98936.69;;;27.09
15360;BMP280;7779;49.596;11.070;2022-08-06T13:26:25;98928.97;;;27.11
15360;BMP280;7779;49.596;11.070;2022-08-06T13:29:17;98926.38;;;27.08
15360;BMP280;7779;49.596;11.070;2022-08-06T13:31:46;98922.09;;;27.05
15360;BMP280;7779;49.596;11.070;2022-08-06T13:34:16;98929.81;;;27.07
15360;BMP280;7779;49.596;11.070;2022-08-06T13:36:53;98928.09;;;27.07
15360;BMP280;7779;49.596;11.070;2022-08-06T13:39:29;98934.09;;;27.09
15360;BMP280;7779;49.596;11.070;2022-08-06T13:42:04;98924.66;;;27.10
15360;BMP280;7779;49.596;11.070;2022-08-06T13:44:34;98919.53;;;27.11
15360;BMP280;7779;49.596;11.070;2022-08-06T13:47:02;98918.69;;;27.13
15360;BMP280;7779;49.596;11.070;2022-08-06T13:49:29;98922.13;;;27.17
15360;BMP280;7779;49.596;11.070;2022-08-06T13:51:55;98928.97;;;27.18
15360;BMP280;7779;49.596;11.070;2022-08-06T13:54:23;98922.97;;;27.17
15360;BMP280;7779;49.596;11.070;2022-08-06T13:56:51;98925.53;;;27.16
15360;BMP280;7779;49.596;11.070;2022-08-06T13:59:18;98907.53;;;27.12
15360;BMP280;7779;49.596;11.070;2022-08-06T14:01:46;98912.69;;;27.09
15360;BMP280;7779;49.596;11.070;2022-08-06T14:04:14;98908.38;;;27.09
15360;BMP280;7779;49.596;11.070;2022-08-06T14:06:41;98907.53;;;27.09
15360;BMP280;7779;49.596;11.070;2022-08-06T14:09:07;98895.53;;;27.11
15360;BMP280;7779;49.596;11.070;2022-08-06T14:11:33;98902.38;;;27.14
15360;BMP280;7779;49.596;11.070;2022-08-06T14:13:59;98904.97;;;27.20
15360;BMP280;7779;49.596;11.070;2022-08-06T14:16:24;98906.69;;;27.24
15360;BMP280;7779;49.596;11.070;2022-08-06T14:18:50;98889.50;;;27.29
15360;BMP280;7779;49.596;11.070;2022-08-06T14:21:16;98888.66;;;27.33
15360;BMP280;7779;49.596;11.070;2022-08-06T14:23:42;98896.34;;;27.36
15360;BMP280;7779;49.596;11.070;2022-08-06T14:26:08;98885.19;;;27.40
15360;BMP280;7779;49.596;11.070;2022-08-06T14:28:34;98895.50;;;27.43
15360;BMP280;7779;49.596;11.070;2022-08-06T14:31:00;98888.66;;;27.45
15360;BMP280;7779;49.596;11.070;2022-08-06T14:33:26;98892.97;;;27.45
15360;BMP280;7779;49.596;11.070;2022-08-06T14:35:52;98886.97;;;27.44
15360;BMP280;7779;49.596;11.070;2022-08-06T14:38:22;98880.94;;;27.42
15360;BMP280;7779;49.596;11.070;2022-08-06T14:40:48;98876.63;;;27.41
15360;BMP280;7779;49.596;11.070;2022-08-06T14:43:32;98879.19;;;27.41
15360;BMP280;7779;49.596;11.070;2022-08-06T14:46:16;98885.19;;;27.42
15360;BMP280;7779;49.596;11.070;2022-08-06T14:48:42;98888.66;;;27.44
15360;BMP280;7779;49.596;11.070;2022-08-06T14:51:08;98883.50;;;27.45
15360;BMP280;7779;49.596;11.070;2022-08-06T14:53:34;98885.25;;;27.48
15360;BMP280;7779;49.596;11.070;2022-08-06T14:56:00;98874.94;;;27.46
15360;BMP280;7779;49.596;11.070;2022-08-06T14:58:26;98881.81;;;27.46
15360;BMP280;7779;49.596;11.070;2022-08-06T15:00:52;98878.38;;;27.48
15360;BMP280;7779;49.596;11.070;2022-08-06T15:03:19;98874.06;;;27.50
15360;BMP280;7779;49.596;11.070;2022-08-06T15:05:45;98874.06;;;27.53
15360;BMP280;7779;49.596;11.070;2022-08-06T15:08:11;98869.78;;;27.55
15360;BMP280;7779;49.596;11.070;2022-08-06T15:10:38;98882.66;;;27.55
15360;BMP280;7779;49.596;11.070;2022-08-06T15:13:05;98878.38;;;27.51
15360;BMP280;7779;49.596;11.070;2022-08-06T15:15:32;98880.09;;;27.46
15360;BMP280;7779;49.596;11.070;2022-08-06T15:17:58;98874.91;;;27.43
15360;BMP280;7779;49.596;11.070;2022-08-06T15:20:24;98868.91;;;27.43
15360;BMP280;7779;49.596;11.070;2022-08-06T15:22:50;98873.22;;;27.42
15360;BMP280;7779;49.596;11.070;2022-08-06T15:25:16;98870.63;;;27.42
15360;BMP280;7779;49.596;11.070;2022-08-06T15:27:46;98867.19;;;27.42
15360;BMP280;7779;49.596;11.070;2022-08-06T15:30:14;98858.63;;;27.41
15360;BMP280;7779;49.596;11.070;2022-08-06T15:32:40;98859.47;;;27.40